Home > Products > Valid Products > TAF

000
FTUS43 KMKX 221123
TAFMSN
TAF
KMSN 221123Z 2212/2312 00000KT 2SM BR OVC004
     FM221300 VRB03KT 3SM BR OVC008
     FM221500 15004KT 6SM BR BKN013
     FM221700 15004KT P6SM SCT030
     FM230400 11005KT 3SM BR SCT120
     FM230600 00000KT 2SM BR SCT015
     FM230800 00000KT 1/2SM FG BKN004=



000
FTUS43 KMKX 221123
TAFMKE
TAF
KMKE 221123Z 2212/2318 12004KT 3/4SM BR OVC002
     FM221300 11004KT 2SM BR OVC004
      TEMPO 2213/2214 1SM BR
     FM221500 11004KT 3SM BR BKN006
     FM221700 10006KT 6SM HZ SCT020
     FM230300 05004KT 3SM BR SCT150
     FM230500 VRB03KT 2SM BR SCT080
     FM230800 05004KT 1/2SM FG BKN006
     FM231600 08007KT P6SM BKN025=



000
FTUS43 KMKX 221123
TAFMKE
TAF
KMKE 221123Z 2212/2318 12004KT 3/4SM BR OVC002
     FM221300 11004KT 2SM BR OVC004
      TEMPO 2213/2214 1SM BR
     FM221500 11004KT 3SM BR BKN006
     FM221700 10006KT 6SM HZ SCT020
     FM230300 05004KT 3SM BR SCT150
     FM230500 VRB03KT 2SM BR SCT080
     FM230800 05004KT 1/2SM FG BKN006
     FM231600 08007KT P6SM BKN025=



000
FTUS43 KMKX 221123
TAFMSN
TAF
KMSN 221123Z 2212/2312 00000KT 2SM BR OVC004
     FM221300 VRB03KT 3SM BR OVC008
     FM221500 15004KT 6SM BR BKN013
     FM221700 15004KT P6SM SCT030
     FM230400 11005KT 3SM BR SCT120
     FM230600 00000KT 2SM BR SCT015
     FM230800 00000KT 1/2SM FG BKN004=



000
FTUS43 KMKX 221044 AAB
TAFMKE
TAF AMD
KMKE 221044Z 2211/2312 VRB03KT 1SM BR OVC001
     FM221300 12004KT 2SM BR BKN004
      TEMPO 2213/2214 1SM BR
     FM221400 12004KT 3SM BR SCT004
     FM221600 11006KT P6SM SCT010
     FM222100 11008KT P6SM FEW050 SCT150
     FM230600 04004KT P6SM BKN100
     FM231100 04005KT P6SM BKN020=



000
FTUS43 KMKX 221044 AAB
TAFMKE
TAF AMD
KMKE 221044Z 2211/2312 VRB03KT 1SM BR OVC001
     FM221300 12004KT 2SM BR BKN004
      TEMPO 2213/2214 1SM BR
     FM221400 12004KT 3SM BR SCT004
     FM221600 11006KT P6SM SCT010
     FM222100 11008KT P6SM FEW050 SCT150
     FM230600 04004KT P6SM BKN100
     FM231100 04005KT P6SM BKN020=



000
FTUS43 KMKX 221037 AAC
TAFMSN
TAF AMD
KMSN 221037Z 2211/2306 14003KT 2SM BR OVC002
     FM221400 13004KT 3SM BR BKN006
     FM221600 13004KT P6SM SCT010
      TEMPO 2216/2217 BKN010
     FM221800 14004KT P6SM SCT030
     FM230300 06004KT P6SM SCT200=



000
FTUS43 KMKX 221037 AAC
TAFMSN
TAF AMD
KMSN 221037Z 2211/2306 14003KT 2SM BR OVC002
     FM221400 13004KT 3SM BR BKN006
     FM221600 13004KT P6SM SCT010
      TEMPO 2216/2217 BKN010
     FM221800 14004KT P6SM SCT030
     FM230300 06004KT P6SM SCT200=



000
FTUS43 KMKX 220816 AAB
TAFMSN
TAF AMD
KMSN 220816Z 2208/2306 00000KT 1SM BR OVC002
     FM221000 00000KT 1/2SM FG OVC002
     FM221400 12003KT 3SM BR BKN006
      TEMPO 2214/2215 1SM BR
     FM221600 13003KT P6SM SCT010
      TEMPO 2216/2217 BKN010
     FM221800 14004KT P6SM SCT030
     FM230300 06004KT P6SM SCT200=



000
FTUS43 KMKX 220816 AAB
TAFMSN
TAF AMD
KMSN 220816Z 2208/2306 00000KT 1SM BR OVC002
     FM221000 00000KT 1/2SM FG OVC002
     FM221400 12003KT 3SM BR BKN006
      TEMPO 2214/2215 1SM BR
     FM221600 13003KT P6SM SCT010
      TEMPO 2216/2217 BKN010
     FM221800 14004KT P6SM SCT030
     FM230300 06004KT P6SM SCT200=



000
FTUS43 KMKX 220720 AAA
TAFMSN
TAF AMD
KMSN 220720Z 2207/2306 00000KT 3SM BR BKN004
     FM221000 00000KT 2SM BR VCSH BKN003
     FM221400 12003KT 5SM BR BKN006
     FM221600 13003KT P6SM SCT010
      TEMPO 2216/2217 BKN010
     FM221800 14004KT P6SM SCT030
     FM230300 06004KT P6SM SCT200=



000
FTUS43 KMKX 220720 AAA
TAFMSN
TAF AMD
KMSN 220720Z 2207/2306 00000KT 3SM BR BKN004
     FM221000 00000KT 2SM BR VCSH BKN003
     FM221400 12003KT 5SM BR BKN006
     FM221600 13003KT P6SM SCT010
      TEMPO 2216/2217 BKN010
     FM221800 14004KT P6SM SCT030
     FM230300 06004KT P6SM SCT200=



000
FTUS43 KMKX 220614 AAA
TAFMKE
TAF AMD
KMKE 220614Z 2206/2312 VRB03KT 1/4SM FG OVC002
     FM221400 12004KT 2SM BR BKN004
      TEMPO 2214/2215 1SM BR
     FM221500 12004KT 3SM BR SCT004
     FM221700 11006KT P6SM SCT010
     FM222100 11008KT P6SM FEW050 SCT150
     FM230600 04004KT P6SM BKN100
     FM231100 04005KT P6SM BKN020=



000
FTUS43 KMKX 220614 AAA
TAFMKE
TAF AMD
KMKE 220614Z 2206/2312 VRB03KT 1/4SM FG OVC002
     FM221400 12004KT 2SM BR BKN004
      TEMPO 2214/2215 1SM BR
     FM221500 12004KT 3SM BR SCT004
     FM221700 11006KT P6SM SCT010
     FM222100 11008KT P6SM FEW050 SCT150
     FM230600 04004KT P6SM BKN100
     FM231100 04005KT P6SM BKN020=



000
FTUS43 KMKX 220520
TAFMSN
TAF
KMSN 220520Z 2206/2306 VRB03KT 6SM BR SCT030 BKN070
     FM221000 00000KT 2SM BR VCSH BKN008
     FM221500 21004KT P6SM FEW025
     FM221800 22005KT P6SM FEW035 SCT070
     FM222100 30005KT P6SM FEW050 SCT140
     FM222300 36004KT P6SM FEW050
     FM230300 06004KT P6SM SCT200=



000
FTUS43 KMKX 220520
TAFMKE
TAF
KMKE 220520Z 2206/2312 VRB03KT 2SM BR BKN002
     FM220700 VRB03KT 3/4SM BR BKN002
     FM221200 VRB03KT 1/2SM FG BKN003
     FM221500 12004KT 6SM BR FEW020 SCT035
     FM221700 11006KT P6SM FEW030
     FM222100 11008KT P6SM FEW050 SCT150
     FM230600 04004KT P6SM BKN100
     FM231100 04005KT P6SM BKN020=



000
FTUS43 KMKX 220427 AAD
TAFMKE
TAF AMD
KMKE 220427Z 2204/2306 15006KT 2SM BR BKN002 OVC025
     FM220600 15004KT 3/4SM BR BKN002
     FM221200 21004KT 2SM BR BKN004
     FM221400 21004KT P6SM BKN025
     FM221600 18005KT P6SM SCT035 BKN250
     FM221800 10006KT P6SM FEW035 BKN250
     FM230500 04004KT P6SM BKN003=



000
FTUS43 KMKX 220427 AAD
TAFMKE
TAF AMD
KMKE 220427Z 2204/2306 15006KT 2SM BR BKN002 OVC025
     FM220600 15004KT 3/4SM BR BKN002
     FM221200 21004KT 2SM BR BKN004
     FM221400 21004KT P6SM BKN025
     FM221600 18005KT P6SM SCT035 BKN250
     FM221800 10006KT P6SM FEW035 BKN250
     FM230500 04004KT P6SM BKN003=



000
FTUS43 KMKX 220406 AAC
TAFMKE
TAF AMD
KMKE 220406Z 2204/2306 14006KT 5SM BR BKN025 OVC100
     FM220500 15004KT 5SM BR BKN006
     FM221000 19004KT 3SM BR BKN004
     FM221200 21004KT 2SM BR BKN006
     FM221400 21004KT P6SM BKN025
     FM221600 18005KT P6SM SCT035 BKN250
     FM221800 10006KT P6SM FEW035 BKN250
     FM230500 04004KT P6SM BKN003=



000
FTUS43 KMKX 220406 AAC
TAFMKE
TAF AMD
KMKE 220406Z 2204/2306 14006KT 5SM BR BKN025 OVC100
     FM220500 15004KT 5SM BR BKN006
     FM221000 19004KT 3SM BR BKN004
     FM221200 21004KT 2SM BR BKN006
     FM221400 21004KT P6SM BKN025
     FM221600 18005KT P6SM SCT035 BKN250
     FM221800 10006KT P6SM FEW035 BKN250
     FM230500 04004KT P6SM BKN003=



000
FTUS43 KMKX 220339 AAB
TAFMSN
TAF AMD
KMSN 220339Z 2204/2224 16004KT P6SM BKN100
     FM221000 17004KT 2SM BR BKN010
     FM221400 23004KT P6SM SCT015 BKN070
     FM221600 24004KT P6SM SCT035 SCT120
     FM222100 30005KT P6SM FEW035 SCT050=



000
FTUS43 KMKX 220339 AAB
TAFMSN
TAF AMD
KMSN 220339Z 2204/2224 16004KT P6SM BKN100
     FM221000 17004KT 2SM BR BKN010
     FM221400 23004KT P6SM SCT015 BKN070
     FM221600 24004KT P6SM SCT035 SCT120
     FM222100 30005KT P6SM FEW035 SCT050=



000
FTUS43 KMKX 220337 AAB
TAFMKE
TAF AMD
KMKE 220337Z 2204/2306 14003KT 6SM BR SCT006 BKN100
     FM220500 15004KT 5SM BR BKN006
     FM221000 19004KT 3SM BR BKN004
     FM221200 21004KT 2SM BR BKN006
     FM221400 21004KT P6SM BKN025
     FM221600 18005KT P6SM SCT035 BKN250
     FM221800 10006KT P6SM FEW035 BKN250
     FM230500 04004KT P6SM BKN003=



000
FTUS43 KMKX 220337 AAB
TAFMKE
TAF AMD
KMKE 220337Z 2204/2306 14003KT 6SM BR SCT006 BKN100
     FM220500 15004KT 5SM BR BKN006
     FM221000 19004KT 3SM BR BKN004
     FM221200 21004KT 2SM BR BKN006
     FM221400 21004KT P6SM BKN025
     FM221600 18005KT P6SM SCT035 BKN250
     FM221800 10006KT P6SM FEW035 BKN250
     FM230500 04004KT P6SM BKN003=



000
FTUS43 KMKX 220306 AAA
TAFMKE
TAF AMD
KMKE 220306Z 2203/2306 14003KT 6SM BR BKN020 OVC100
     FM220500 15004KT 5SM BR SCT008 BKN100
     FM221000 19004KT 3SM BR BKN010
     FM221200 21004KT 2SM BR BKN006
     FM221400 21004KT P6SM BKN025
     FM221600 18005KT P6SM SCT035 BKN250
     FM221800 10006KT P6SM FEW035 BKN250
     FM230500 04004KT P6SM BKN003=



000
FTUS43 KMKX 220306 AAA
TAFMKE
TAF AMD
KMKE 220306Z 2203/2306 14003KT 6SM BR BKN020 OVC100
     FM220500 15004KT 5SM BR SCT008 BKN100
     FM221000 19004KT 3SM BR BKN010
     FM221200 21004KT 2SM BR BKN006
     FM221400 21004KT P6SM BKN025
     FM221600 18005KT P6SM SCT035 BKN250
     FM221800 10006KT P6SM FEW035 BKN250
     FM230500 04004KT P6SM BKN003=



000
FTUS43 KMKX 220031 AAA
TAFMSN
TAF AMD
KMSN 220031Z 2201/2224 16005KT P6SM BKN015 OVC150
     FM220300 16005KT P6SM VCSH BKN025 BKN050
     FM221000 17004KT 2SM BR BKN010
     FM221400 23004KT P6SM SCT015 BKN070
     FM221600 24004KT P6SM SCT035 SCT120
     FM222100 30005KT P6SM FEW035 SCT050=



000
FTUS43 KMKX 220031 AAA
TAFMSN
TAF AMD
KMSN 220031Z 2201/2224 16005KT P6SM BKN015 OVC150
     FM220300 16005KT P6SM VCSH BKN025 BKN050
     FM221000 17004KT 2SM BR BKN010
     FM221400 23004KT P6SM SCT015 BKN070
     FM221600 24004KT P6SM SCT035 SCT120
     FM222100 30005KT P6SM FEW035 SCT050=



000
FTUS43 KMKX 212320
TAFMSN
TAF
KMSN 212320Z 2200/2224 16005KT P6SM SCT015 OVC150
     FM220300 16005KT P6SM VCSH BKN025 BKN050
     FM221000 17004KT 2SM BR BKN010
     FM221400 23004KT P6SM SCT015 BKN070
     FM221600 24004KT P6SM SCT035 SCT120
     FM222100 30005KT P6SM FEW035 SCT050=



000
FTUS43 KMKX 212320
TAFMKE
TAF
KMKE 212320Z 2200/2306 11005KT P6SM BKN015 BKN025
     FM220200 13005KT P6SM SCT008 BKN070
     FM220500 15004KT P6SM VCSH SCT008 OVC050
     FM221000 19004KT 3SM BR BKN010
     FM221200 21004KT 2SM BR BKN006
     FM221400 21004KT P6SM BKN025
     FM221600 18005KT P6SM SCT035 BKN250
     FM221800 10006KT P6SM FEW035 BKN250
     FM230500 04004KT P6SM BKN003=



000
FTUS43 KMKX 212320
TAFMKE
TAF
KMKE 212320Z 2200/2306 11005KT P6SM BKN015 BKN025
     FM220200 13005KT P6SM SCT008 BKN070
     FM220500 15004KT P6SM VCSH SCT008 OVC050
     FM221000 19004KT 3SM BR BKN010
     FM221200 21004KT 2SM BR BKN006
     FM221400 21004KT P6SM BKN025
     FM221600 18005KT P6SM SCT035 BKN250
     FM221800 10006KT P6SM FEW035 BKN250
     FM230500 04004KT P6SM BKN003=



000
FTUS43 KMKX 212320
TAFMSN
TAF
KMSN 212320Z 2200/2224 16005KT P6SM SCT015 OVC150
     FM220300 16005KT P6SM VCSH BKN025 BKN050
     FM221000 17004KT 2SM BR BKN010
     FM221400 23004KT P6SM SCT015 BKN070
     FM221600 24004KT P6SM SCT035 SCT120
     FM222100 30005KT P6SM FEW035 SCT050=



000
FTUS43 KMKX 212201 AAC
TAFMSN
TAF AMD
KMSN 212201Z 2122/2218 16010KT P6SM BKN016
     FM220000 16006KT P6SM VCSH SCT015 BKN035
     FM220300 VRB03KT P6SM BKN010 BKN050
     FM221100 VRB03KT 2SM BR BKN010
     FM221400 27004KT P6SM SCT040=



000
FTUS43 KMKX 212201 AAD
TAFMKE
TAF AMD
KMKE 212201Z 2122/2224 17008KT P6SM BKN016
     FM220000 14006KT P6SM SCT016 BKN120
     FM220200 12006KT P6SM VCSH BKN030
     FM220800 15006KT 3SM BR BKN015
     FM221200 19004KT P6SM BKN015
     FM221700 07005KT P6SM BKN050=



000
FTUS43 KMKX 212201 AAD
TAFMKE
TAF AMD
KMKE 212201Z 2122/2224 17008KT P6SM BKN016
     FM220000 14006KT P6SM SCT016 BKN120
     FM220200 12006KT P6SM VCSH BKN030
     FM220800 15006KT 3SM BR BKN015
     FM221200 19004KT P6SM BKN015
     FM221700 07005KT P6SM BKN050=



000
FTUS43 KMKX 212201 AAC
TAFMSN
TAF AMD
KMSN 212201Z 2122/2218 16010KT P6SM BKN016
     FM220000 16006KT P6SM VCSH SCT015 BKN035
     FM220300 VRB03KT P6SM BKN010 BKN050
     FM221100 VRB03KT 2SM BR BKN010
     FM221400 27004KT P6SM SCT040=



000
FTUS43 KMKX 212126 AAB
TAFMSN
TAF AMD
KMSN 212126Z 2121/2218 16010KT P6SM SCT013 OVC020
     FM220000 16006KT P6SM VCSH SCT015 BKN035
     FM220300 VRB03KT P6SM BKN010 BKN050
     FM221100 VRB03KT 2SM BR BKN010
     FM221400 27004KT P6SM SCT040=



000
FTUS43 KMKX 212126 AAB
TAFMSN
TAF AMD
KMSN 212126Z 2121/2218 16010KT P6SM SCT013 OVC020
     FM220000 16006KT P6SM VCSH SCT015 BKN035
     FM220300 VRB03KT P6SM BKN010 BKN050
     FM221100 VRB03KT 2SM BR BKN010
     FM221400 27004KT P6SM SCT040=



000
FTUS43 KMKX 212124 AAC
TAFMKE
TAF AMD
KMKE 212124Z 2121/2224 15008KT P6SM OVC006
     FM212300 14006KT P6SM BKN010 BKN120
     FM220200 12006KT P6SM VCSH BKN030
     FM220800 15006KT 3SM BR BKN015
     FM221200 19004KT P6SM BKN015
     FM221700 07005KT P6SM BKN050=



000
FTUS43 KMKX 212022 AAA
TAFMSN
TAF AMD
KMSN 212022Z 2120/2218 18012G18KT P6SM BKN010 OVC120
     FM212200 17009KT P6SM SCT010 BKN150
     FM220000 16006KT P6SM VCTS SCT015 BKN035CB
     FM220300 VRB03KT P6SM BKN010 BKN050
     FM221100 VRB03KT 2SM BR BKN010
     FM221400 27004KT P6SM SCT040=



000
FTUS43 KMKX 212022 AAA
TAFMSN
TAF AMD
KMSN 212022Z 2120/2218 18012G18KT P6SM BKN010 OVC120
     FM212200 17009KT P6SM SCT010 BKN150
     FM220000 16006KT P6SM VCTS SCT015 BKN035CB
     FM220300 VRB03KT P6SM BKN010 BKN050
     FM221100 VRB03KT 2SM BR BKN010
     FM221400 27004KT P6SM SCT040=



000
FTUS43 KMKX 212018 AAB
TAFMKE
TAF AMD
KMKE 212018Z 2120/2224 14006KT P6SM BKN006 OVC013
     FM212200 14006KT P6SM SCT009 BKN120
     FM220200 12006KT P6SM VCSH BKN030
     FM220800 15006KT 3SM BR BKN015
     FM221200 19004KT P6SM BKN015
     FM221700 07005KT P6SM BKN050=



000
FTUS43 KMKX 211819 AAA
TAFMKE
TAF AMD
KMKE 211819Z 2118/2224 33005KT P6SM -RA VCTS SCT007 BKN035CB
      TEMPO 2118/2119 1SM TSRA BR BKN007CB
     FM212100 VRB05KT P6SM VCSH SCT020 BKN035
     FM220200 12006KT P6SM VCSH BKN030
     FM220800 15006KT 3SM BR BKN015
     FM221200 19004KT P6SM BKN015
     FM221700 07005KT P6SM BKN050=



000
FTUS43 KMKX 211819 AAA
TAFMKE
TAF AMD
KMKE 211819Z 2118/2224 33005KT P6SM -RA VCTS SCT007 BKN035CB
      TEMPO 2118/2119 1SM TSRA BR BKN007CB
     FM212100 VRB05KT P6SM VCSH SCT020 BKN035
     FM220200 12006KT P6SM VCSH BKN030
     FM220800 15006KT 3SM BR BKN015
     FM221200 19004KT P6SM BKN015
     FM221700 07005KT P6SM BKN050=



000
FTUS43 KMKX 211739
TAFMKE
TAF
KMKE 211739Z 2118/2224 12005KT P6SM -RA VCTS SCT006 BKN040CB
     FM212100 VRB05KT P6SM VCSH SCT020 BKN035
     FM220200 12006KT P6SM VCSH BKN030
     FM220800 15006KT 3SM BR BKN015
     FM221200 19004KT P6SM BKN015
     FM221700 07005KT P6SM BKN050=



000
FTUS43 KMKX 211739
TAFMSN
TAF
KMSN 211739Z 2118/2218 14005KT P6SM -SHRA VCTS FEW020 BKN045CB
      OVC080
     FM212000 15007KT P6SM SCT020 BKN050
     FM220000 16006KT P6SM VCTS SCT015 BKN035CB
     FM220300 VRB03KT P6SM BKN010 BKN050
     FM221100 VRB03KT 2SM BR BKN010
     FM221400 27004KT P6SM SCT040=



000
FTUS43 KMKX 211739
TAFMKE
TAF
KMKE 211739Z 2118/2224 12005KT P6SM -RA VCTS SCT006 BKN040CB
     FM212100 VRB05KT P6SM VCSH SCT020 BKN035
     FM220200 12006KT P6SM VCSH BKN030
     FM220800 15006KT 3SM BR BKN015
     FM221200 19004KT P6SM BKN015
     FM221700 07005KT P6SM BKN050=



000
FTUS43 KMKX 211739
TAFMSN
TAF
KMSN 211739Z 2118/2218 14005KT P6SM -SHRA VCTS FEW020 BKN045CB
      OVC080
     FM212000 15007KT P6SM SCT020 BKN050
     FM220000 16006KT P6SM VCTS SCT015 BKN035CB
     FM220300 VRB03KT P6SM BKN010 BKN050
     FM221100 VRB03KT 2SM BR BKN010
     FM221400 27004KT P6SM SCT040=



000
FTUS43 KMKX 211603 AAC
TAFMSN
TAF AMD
KMSN 211603Z 2116/2212 18008KT 3SM +TSRA BKN008CB OVC060
      TEMPO 2116/2117 1SM +TSRA BKN008CB
     FM211700 17007KT P6SM -SHRA VCTS FEW008 BKN035CB OVC080
     FM220000 15007KT P6SM VCSH BKN040
     FM220300 VRB03KT P6SM BKN010 BKN050
     FM221100 VRB03KT 2SM BR BKN010=



000
FTUS43 KMKX 211603 AAC
TAFMSN
TAF AMD
KMSN 211603Z 2116/2212 18008KT 3SM +TSRA BKN008CB OVC060
      TEMPO 2116/2117 1SM +TSRA BKN008CB
     FM211700 17007KT P6SM -SHRA VCTS FEW008 BKN035CB OVC080
     FM220000 15007KT P6SM VCSH BKN040
     FM220300 VRB03KT P6SM BKN010 BKN050
     FM221100 VRB03KT 2SM BR BKN010=



000
FTUS43 KMKX 211552 AAA
TAFMKE
TAF AMD
KMKE 211552Z 2116/2218 06008KT P6SM VCSH FEW020 SCT060 BKN150
     FM211900 09008KT P6SM -RA VCTS FEW030 BKN050CB
     FM220000 12007KT P6SM VCSH BKN020
     FM220800 15006KT 3SM BR BKN015
     FM221200 19004KT P6SM BKN015
     FM221700 07005KT P6SM SCT050=



000
FTUS43 KMKX 211552 AAA
TAFMKE
TAF AMD
KMKE 211552Z 2116/2218 06008KT P6SM VCSH FEW020 SCT060 BKN150
     FM211900 09008KT P6SM -RA VCTS FEW030 BKN050CB
     FM220000 12007KT P6SM VCSH BKN020
     FM220800 15006KT 3SM BR BKN015
     FM221200 19004KT P6SM BKN015
     FM221700 07005KT P6SM SCT050=



000
FTUS43 KMKX 211410 AAB
TAFMSN
TAF AMD
KMSN 211410Z 2114/2212 17008KT P6SM -TSRA FEW007 BKN050CB
      TEMPO 2115/2118 3SM TSRA BKN035CB
     FM211800 17007KT P6SM VCTS BKN035CB BKN080
     FM220000 15007KT P6SM +TSRA BKN040CB
     FM220600 VRB03KT P6SM BKN010 BKN050
     FM221100 VRB03KT 2SM BR BKN010=



000
FTUS43 KMKX 211410 AAB
TAFMSN
TAF AMD
KMSN 211410Z 2114/2212 17008KT P6SM -TSRA FEW007 BKN050CB
      TEMPO 2115/2118 3SM TSRA BKN035CB
     FM211800 17007KT P6SM VCTS BKN035CB BKN080
     FM220000 15007KT P6SM +TSRA BKN040CB
     FM220600 VRB03KT P6SM BKN010 BKN050
     FM221100 VRB03KT 2SM BR BKN010=



000
FTUS43 KMKX 211241 AAA
TAFMSN
TAF AMD
KMSN 211241Z 2113/2212 18006KT P6SM VCSH SCT016 BKN100
     FM211500 17008KT P6SM VCTS BKN035CB
      TEMPO 2115/2119 3SM TSRA BKN030CB
     FM211900 17007KT P6SM VCTS BKN035CB BKN080
     FM220000 15007KT P6SM +TSRA BKN040CB
     FM220600 VRB03KT P6SM BKN010 BKN050
     FM221100 VRB03KT 2SM BR BKN010=



000
FTUS43 KMKX 211241 AAA
TAFMSN
TAF AMD
KMSN 211241Z 2113/2212 18006KT P6SM VCSH SCT016 BKN100
     FM211500 17008KT P6SM VCTS BKN035CB
      TEMPO 2115/2119 3SM TSRA BKN030CB
     FM211900 17007KT P6SM VCTS BKN035CB BKN080
     FM220000 15007KT P6SM +TSRA BKN040CB
     FM220600 VRB03KT P6SM BKN010 BKN050
     FM221100 VRB03KT 2SM BR BKN010=



000
FTUS43 KMKX 211146
TAFMKE
TAF
KMKE 211146Z 2112/2218 VRB03KT P6SM SCT008 BKN050
      TEMPO 2112/2114 BKN008
     FM211600 14007KT P6SM VCTS BKN035CB BKN080
     FM211900 13008KT P6SM +TSRA BKN030CB
     FM220500 10007KT P6SM VCSH BKN020
     FM220800 15006KT 3SM BR BKN015
     FM221200 19004KT P6SM BKN015
     FM221700 07005KT P6SM SCT050=



000
FTUS43 KMKX 211146
TAFMSN
TAF
KMSN 211146Z 2112/2212 16004KT P6SM VCSH SCT016 BKN100
      TEMPO 2112/2115 BKN016
     FM211500 17008KT P6SM VCTS BKN035CB
      TEMPO 2116/2120 3SM TSRA BKN030CB
     FM212000 17007KT P6SM VCTS BKN035CB BKN080
     FM220000 15007KT P6SM +TSRA BKN040CB
     FM220600 VRB03KT P6SM BKN010 BKN050
     FM221100 VRB03KT 2SM BR BKN010=



000
FTUS43 KMKX 211146
TAFMSN
TAF
KMSN 211146Z 2112/2212 16004KT P6SM VCSH SCT016 BKN100
      TEMPO 2112/2115 BKN016
     FM211500 17008KT P6SM VCTS BKN035CB
      TEMPO 2116/2120 3SM TSRA BKN030CB
     FM212000 17007KT P6SM VCTS BKN035CB BKN080
     FM220000 15007KT P6SM +TSRA BKN040CB
     FM220600 VRB03KT P6SM BKN010 BKN050
     FM221100 VRB03KT 2SM BR BKN010=



000
FTUS43 KMKX 211146
TAFMKE
TAF
KMKE 211146Z 2112/2218 VRB03KT P6SM SCT008 BKN050
      TEMPO 2112/2114 BKN008
     FM211600 14007KT P6SM VCTS BKN035CB BKN080
     FM211900 13008KT P6SM +TSRA BKN030CB
     FM220500 10007KT P6SM VCSH BKN020
     FM220800 15006KT 3SM BR BKN015
     FM221200 19004KT P6SM BKN015
     FM221700 07005KT P6SM SCT050=



000
FTUS43 KMKX 211034 AAB
TAFMSN
TAF AMD
KMSN 211034Z 2111/2206 19004KT P6SM VCSH FEW010 SCT070 BKN110
     FM211500 17006KT P6SM SCT035 BKN080
     FM211700 16008KT P6SM VCTS BKN035CB
      TEMPO 2118/2122 3SM TSRA BKN030CB
     FM220000 13005KT P6SM VCTS BKN035CB=



000
FTUS43 KMKX 211034 AAB
TAFMSN
TAF AMD
KMSN 211034Z 2111/2206 19004KT P6SM VCSH FEW010 SCT070 BKN110
     FM211500 17006KT P6SM SCT035 BKN080
     FM211700 16008KT P6SM VCTS BKN035CB
      TEMPO 2118/2122 3SM TSRA BKN030CB
     FM220000 13005KT P6SM VCTS BKN035CB=



000
FTUS43 KMKX 210954 AAA
TAFMKE
TAF AMD
KMKE 210954Z 2110/2212 VRB03KT P6SM FEW015 BKN110
     FM211200 14005KT P6SM SCT015 BKN060
      TEMPO 2112/2116 SHRA
     FM211600 15006KT P6SM FEW030 BKN070
     FM212100 14007KT P6SM TSRA BKN030CB
     FM220500 12006KT P6SM BKN006 BKN050=



000
FTUS43 KMKX 210954 AAA
TAFMKE
TAF AMD
KMKE 210954Z 2110/2212 VRB03KT P6SM FEW015 BKN110
     FM211200 14005KT P6SM SCT015 BKN060
      TEMPO 2112/2116 SHRA
     FM211600 15006KT P6SM FEW030 BKN070
     FM212100 14007KT P6SM TSRA BKN030CB
     FM220500 12006KT P6SM BKN006 BKN050=



000
FTUS43 KMKX 210844 AAA
TAFMSN
TAF AMD
KMSN 210844Z 2109/2206 VRB03KT P6SM SCT008 BKN011
      TEMPO 2110/2112 3SM SHRA
     FM211200 VRB03KT 3SM BR BKN015
     FM211500 17006KT P6SM SCT035 BKN080
     FM211900 16008KT P6SM BKN035
      TEMPO 2120/2124 3SM TSRA BKN030CB
     FM220000 13005KT P6SM VCTS BKN035CB=



000
FTUS43 KMKX 210844 AAA
TAFMSN
TAF AMD
KMSN 210844Z 2109/2206 VRB03KT P6SM SCT008 BKN011
      TEMPO 2110/2112 3SM SHRA
     FM211200 VRB03KT 3SM BR BKN015
     FM211500 17006KT P6SM SCT035 BKN080
     FM211900 16008KT P6SM BKN035
      TEMPO 2120/2124 3SM TSRA BKN030CB
     FM220000 13005KT P6SM VCTS BKN035CB=



000
FTUS43 KMKX 210520
TAFMKE
TAF
KMKE 210520Z 2106/2212 10004KT P6SM BKN060
     FM210900 14005KT 5SM BR VCSH SCT025 BKN050
     FM211400 15004KT P6SM VCTS SCT025CB BKN070CB
     FM211900 14007KT P6SM TSRA BKN035CB
     FM212300 14006KT 6SM -SHRA SCT025 BKN070
     FM220500 12006KT P6SM BKN006 BKN050=



000
FTUS43 KMKX 210520
TAFMSN
TAF
KMSN 210520Z 2106/2206 13004KT P6SM SCT060 BKN150
     FM210800 VRB03KT 5SM BR VCSH BKN070
     FM211200 VRB03KT 3SM BR VCTS SCT025 OVC060CB
     FM211500 17006KT P6SM SCT035 BKN080
     FM211900 16008KT P6SM TSRA BKN035CB
     FM220000 16006KT P6SM -SHRA BKN040 BKN080
     FM220300 13005KT P6SM SCT008 BKN060=



000
FTUS43 KMKX 210520
TAFMKE
TAF
KMKE 210520Z 2106/2212 10004KT P6SM BKN060
     FM210900 14005KT 5SM BR VCSH SCT025 BKN050
     FM211400 15004KT P6SM VCTS SCT025CB BKN070CB
     FM211900 14007KT P6SM TSRA BKN035CB
     FM212300 14006KT 6SM -SHRA SCT025 BKN070
     FM220500 12006KT P6SM BKN006 BKN050=



000
FTUS43 KMKX 210520
TAFMSN
TAF
KMSN 210520Z 2106/2206 13004KT P6SM SCT060 BKN150
     FM210800 VRB03KT 5SM BR VCSH BKN070
     FM211200 VRB03KT 3SM BR VCTS SCT025 OVC060CB
     FM211500 17006KT P6SM SCT035 BKN080
     FM211900 16008KT P6SM TSRA BKN035CB
     FM220000 16006KT P6SM -SHRA BKN040 BKN080
     FM220300 13005KT P6SM SCT008 BKN060=



000
FTUS43 KMKX 210303 AAA
TAFMKE
TAF AMD
KMKE 210303Z 2103/2206 11005KT P6SM SCT050 BKN200
     FM210600 12005KT P6SM BKN060 BKN150
     FM210900 13004KT 6SM BR VCTS SCT035 BKN070CB
     FM211200 14004KT 3SM BR VCTS SCT025 BKN050CB
     FM211500 16005KT 6SM TSRA BKN035 BKN080CB
     FM220000 14007KT P6SM VCTS SCT050 BKN100CB=



000
FTUS43 KMKX 210303 AAA
TAFMKE
TAF AMD
KMKE 210303Z 2103/2206 11005KT P6SM SCT050 BKN200
     FM210600 12005KT P6SM BKN060 BKN150
     FM210900 13004KT 6SM BR VCTS SCT035 BKN070CB
     FM211200 14004KT 3SM BR VCTS SCT025 BKN050CB
     FM211500 16005KT 6SM TSRA BKN035 BKN080CB
     FM220000 14007KT P6SM VCTS SCT050 BKN100CB=



000
FTUS43 KMKX 202320
TAFMSN
TAF
KMSN 202320Z 2100/2124 VRB03KT P6SM FEW050 BKN150
     FM210300 13004KT P6SM SCT060 OVC150
     FM210500 14005KT P6SM VCSH BKN080
     FM210800 14004KT 3SM SHRA BR SCT010 BKN080
     FM211600 17008KT 5SM TSRA SCT025 BKN050CB
     FM212100 17009KT P6SM VCTS BKN070CB=



000
FTUS43 KMKX 202320
TAFMKE
TAF
KMKE 202320Z 2100/2206 11005KT P6SM SCT050 BKN250
     FM210600 12005KT P6SM SCT060 BKN150
     FM210900 13004KT 6SM BR VCTS SCT035 BKN070CB
     FM211200 14004KT 3SM BR VCTS SCT025 BKN050CB
     FM211500 16005KT 6SM TSRA BKN035 BKN080CB
     FM220000 14007KT P6SM VCTS SCT050 BKN100CB=



000
FTUS43 KMKX 201959 AAA
TAFMKE
TAF AMD
KMKE 201959Z 2020/2124 13012KT P6SM SCT050 BKN060 BKN100
     FM202300 12005KT P6SM SCT035 BKN250
     FM210800 14004KT 5SM TSRA BR BKN050CB
     FM211000 14004KT 3SM TSRA BR SCT025 OVC040CB
     FM211200 12005KT P6SM VCTS BKN030CB
     FM211500 15008KT P6SM VCTS SCT030 OVC060CB=



000
FTUS43 KMKX 201734
TAFMKE
TAF
KMKE 201734Z 2018/2124 28006KT P6SM BKN035
     FM201900 11006KT P6SM BKN035
     FM202300 12005KT P6SM SCT035 BKN250
     FM210800 14004KT 5SM TSRA BR BKN050CB
     FM211000 14004KT 3SM TSRA BR SCT025 OVC040CB
     FM211200 12005KT P6SM VCTS BKN030CB
     FM211500 15008KT P6SM VCTS SCT030 OVC060CB=



000
FTUS43 KMKX 201734
TAFMSN
TAF
KMSN 201734Z 2018/2118 28006KT P6SM SCT035 BKN250
     FM202300 03004KT P6SM FEW035 SCT250
     FM210600 VRB03KT 3SM BR BKN200
     FM210800 12004KT 3SM TSRA BR SCT040 BKN060CB
     FM211100 13004KT 2SM TSRA BR OVC035CB
     FM211500 15007KT 5SM BR VCTS BKN025CB
     FM211700 16008KT P6SM VCTS SCT030 BKN060CB=



000
FTUS43 KMKX 201734
TAFMSN
TAF
KMSN 201734Z 2018/2118 28006KT P6SM SCT035 BKN250
     FM202300 03004KT P6SM FEW035 SCT250
     FM210600 VRB03KT 3SM BR BKN200
     FM210800 12004KT 3SM TSRA BR SCT040 BKN060CB
     FM211100 13004KT 2SM TSRA BR OVC035CB
     FM211500 15007KT 5SM BR VCTS BKN025CB
     FM211700 16008KT P6SM VCTS SCT030 BKN060CB=



000
FTUS43 KMKX 201734
TAFMKE
TAF
KMKE 201734Z 2018/2124 28006KT P6SM BKN035
     FM201900 11006KT P6SM BKN035
     FM202300 12005KT P6SM SCT035 BKN250
     FM210800 14004KT 5SM TSRA BR BKN050CB
     FM211000 14004KT 3SM TSRA BR SCT025 OVC040CB
     FM211200 12005KT P6SM VCTS BKN030CB
     FM211500 15008KT P6SM VCTS SCT030 OVC060CB=



000
FTUS43 KMKX 201409 AAA
TAFMKE
TAF AMD
KMKE 201409Z 2014/2118 28006KT P6SM FEW250
     FM201700 16006KT P6SM SCT030
     FM202000 12007KT P6SM SCT040
     FM210600 VRB03KT P6SM BKN050
     FM210800 14004KT 5SM TSRA BR BKN050CB
     FM211200 14005KT P6SM VCTS BKN050CB=



000
FTUS43 KMKX 201409 AAA
TAFMKE
TAF AMD
KMKE 201409Z 2014/2118 28006KT P6SM FEW250
     FM201700 16006KT P6SM SCT030
     FM202000 12007KT P6SM SCT040
     FM210600 VRB03KT P6SM BKN050
     FM210800 14004KT 5SM TSRA BR BKN050CB
     FM211200 14005KT P6SM VCTS BKN050CB=



000
FTUS43 KMKX 201139
TAFMSN
TAF
KMSN 201139Z 2012/2112 00000KT P6SM FEW080
     FM201600 29006KT P6SM SCT030
     FM202300 VRB03KT P6SM SCT040
     FM210500 VRB03KT P6SM BKN050
     FM210600 VRB03KT 3SM BR VCTS BKN050CB
     FM210800 12004KT 3SM TSRA BR BKN050CB=



000
FTUS43 KMKX 201139
TAFMKE
TAF
KMKE 201139Z 2012/2118 30004KT P6SM FEW080
     FM201700 18006KT P6SM SCT030
     FM202000 12007KT P6SM SCT040
     FM210600 VRB03KT P6SM BKN050
     FM210800 14004KT 5SM TSRA BR BKN050CB
     FM211200 14005KT P6SM VCTS BKN050CB=



000
FTUS43 KMKX 201139
TAFMSN
TAF
KMSN 201139Z 2012/2112 00000KT P6SM FEW080
     FM201600 29006KT P6SM SCT030
     FM202300 VRB03KT P6SM SCT040
     FM210500 VRB03KT P6SM BKN050
     FM210600 VRB03KT 3SM BR VCTS BKN050CB
     FM210800 12004KT 3SM TSRA BR BKN050CB=



000
FTUS43 KMKX 201139
TAFMKE
TAF
KMKE 201139Z 2012/2118 30004KT P6SM FEW080
     FM201700 18006KT P6SM SCT030
     FM202000 12007KT P6SM SCT040
     FM210600 VRB03KT P6SM BKN050
     FM210800 14004KT 5SM TSRA BR BKN050CB
     FM211200 14005KT P6SM VCTS BKN050CB=



000
FTUS43 KMKX 201105 AAB
TAFMSN
TAF AMD
KMSN 201105Z 2011/2106 00000KT P6SM FEW080
      TEMPO 2012/2013 5SM BR
     FM201300 VRB03KT P6SM FEW030
     FM201700 29005KT P6SM SCT040
     FM210000 VRB02KT P6SM SCT040=



000
FTUS43 KMKX 201105 AAB
TAFMSN
TAF AMD
KMSN 201105Z 2011/2106 00000KT P6SM FEW080
      TEMPO 2012/2013 5SM BR
     FM201300 VRB03KT P6SM FEW030
     FM201700 29005KT P6SM SCT040
     FM210000 VRB02KT P6SM SCT040=



000
FTUS43 KMKX 200916 AAA
TAFMSN
TAF AMD
KMSN 200916Z 2009/2106 00000KT P6SM FEW080
      TEMPO 2011/2013 5SM BR
     FM201300 VRB03KT P6SM FEW030
     FM201700 29005KT P6SM SCT040
     FM210000 VRB02KT P6SM SCT040=



000
FTUS43 KMKX 200916 AAA
TAFMSN
TAF AMD
KMSN 200916Z 2009/2106 00000KT P6SM FEW080
      TEMPO 2011/2013 5SM BR
     FM201300 VRB03KT P6SM FEW030
     FM201700 29005KT P6SM SCT040
     FM210000 VRB02KT P6SM SCT040=



000
FTUS43 KMKX 200849 AAA
TAFMKE
TAF AMD
KMKE 200849Z 2009/2112 29004KT P6SM SKC
     FM201600 29006KT P6SM SCT030
     FM201800 14007KT P6SM SCT035
     FM210000 12005KT P6SM FEW040
     FM210800 14004KT P6SM BKN090=



000
FTUS43 KMKX 200849 AAA
TAFMKE
TAF AMD
KMKE 200849Z 2009/2112 29004KT P6SM SKC
     FM201600 29006KT P6SM SCT030
     FM201800 14007KT P6SM SCT035
     FM210000 12005KT P6SM FEW040
     FM210800 14004KT P6SM BKN090=



000
FTUS43 KMKX 200520
TAFMKE
TAF
KMKE 200520Z 2006/2112 29004KT P6SM FEW040
     FM201600 29006KT P6SM SCT030
     FM201800 27007KT P6SM BKN035
     FM202200 13006KT P6SM BKN040
     FM210000 12005KT P6SM SCT040
     FM210800 14004KT P6SM BKN090=



000
FTUS43 KMKX 200520
TAFMKE
TAF
KMKE 200520Z 2006/2112 29004KT P6SM FEW040
     FM201600 29006KT P6SM SCT030
     FM201800 27007KT P6SM BKN035
     FM202200 13006KT P6SM BKN040
     FM210000 12005KT P6SM SCT040
     FM210800 14004KT P6SM BKN090=



000
FTUS43 KMKX 200520
TAFMSN
TAF
KMSN 200520Z 2006/2106 00000KT P6SM FEW060
     FM201000 00000KT 3SM BR SCT040
     FM201300 VRB03KT P6SM SCT025
     FM201600 29005KT P6SM SCT030
     FM201800 28005KT P6SM BKN040
     FM202100 29005KT P6SM SCT040
     FM210500 VRB03KT P6SM BKN050=



000
FTUS43 KMKX 200520
TAFMSN
TAF
KMSN 200520Z 2006/2106 00000KT P6SM FEW060
     FM201000 00000KT 3SM BR SCT040
     FM201300 VRB03KT P6SM SCT025
     FM201600 29005KT P6SM SCT030
     FM201800 28005KT P6SM BKN040
     FM202100 29005KT P6SM SCT040
     FM210500 VRB03KT P6SM BKN050=



000
FTUS43 KMKX 192320
TAFMKE
TAF
KMKE 192320Z 2000/2106 08006KT P6SM SCT050
     FM200100 29008KT P6SM SCT050
     FM201600 30005KT P6SM SCT030
     FM201700 29006KT P6SM SCT035
     FM202300 13005KT P6SM SCT040=



000
FTUS43 KMKX 192320
TAFMSN
TAF
KMSN 192320Z 2000/2024 30005KT P6SM SCT040
     FM200800 32003KT 5SM BR BKN050
     FM201000 32003KT 3SM BR BKN050
     FM201300 31003KT P6SM SCT025
     FM201600 30005KT P6SM SCT040=



000
FTUS43 KMKX 192320
TAFMSN
TAF
KMSN 192320Z 2000/2024 30005KT P6SM SCT040
     FM200800 32003KT 5SM BR BKN050
     FM201000 32003KT 3SM BR BKN050
     FM201300 31003KT P6SM SCT025
     FM201600 30005KT P6SM SCT040=



000
FTUS43 KMKX 192320
TAFMKE
TAF
KMKE 192320Z 2000/2106 08006KT P6SM SCT050
     FM200100 29008KT P6SM SCT050
     FM201600 30005KT P6SM SCT030
     FM201700 29006KT P6SM SCT035
     FM202300 13005KT P6SM SCT040=



000
FTUS43 KMKX 192050 AAA
TAFMSN
TAF AMD
KMSN 192050Z 1921/2018 29008KT P6SM FEW035 SCT050
     FM200000 30005KT P6SM SCT060
     FM201100 00000KT 2SM BR BKN007
     FM201400 VRB03KT P6SM SCT020=



000
FTUS43 KMKX 192050 AAA
TAFMSN
TAF AMD
KMSN 192050Z 1921/2018 29008KT P6SM FEW035 SCT050
     FM200000 30005KT P6SM SCT060
     FM201100 00000KT 2SM BR BKN007
     FM201400 VRB03KT P6SM SCT020=



000
FTUS43 KMKX 191930 AAA
TAFMKE
TAF AMD
KMKE 191930Z 1920/2024 29012KT P6SM VCTS SCT030 BKN040CB
     FM192000 28012KT P6SM SCT035 BKN050
     FM200100 27006KT P6SM SCT080
     FM201000 28005KT 3SM BR BKN020
     FM201400 28007KT P6SM SCT020
     FM202000 20006KT P6SM SCT050
     FM202300 13005KT P6SM SCT200=



000
FTUS43 KMKX 191930 AAA
TAFMKE
TAF AMD
KMKE 191930Z 1920/2024 29012KT P6SM VCTS SCT030 BKN040CB
     FM192000 28012KT P6SM SCT035 BKN050
     FM200100 27006KT P6SM SCT080
     FM201000 28005KT 3SM BR BKN020
     FM201400 28007KT P6SM SCT020
     FM202000 20006KT P6SM SCT050
     FM202300 13005KT P6SM SCT200=



000
FTUS43 KMKX 191744
TAFMSN
TAF
KMSN 191744Z 1918/2018 28007KT P6SM BKN030
     FM191900 28010KT P6SM SCT030 BKN040
     FM200100 30005KT P6SM SCT060
     FM201100 00000KT 2SM BR BKN007
     FM201400 VRB03KT P6SM SCT020=



000
FTUS43 KMKX 191744
TAFMKE
TAF
KMKE 191744Z 1918/2024 26010KT P6SM VCTS SCT030 BKN040CB
     FM192000 27011KT P6SM SCT035 BKN050
     FM200100 27006KT P6SM SCT080
     FM201000 28005KT 3SM BR BKN020
     FM201400 28007KT P6SM SCT020
     FM202000 20006KT P6SM SCT050
     FM202300 13005KT P6SM SCT200=



000
FTUS43 KMKX 191744
TAFMSN
TAF
KMSN 191744Z 1918/2018 28007KT P6SM BKN030
     FM191900 28010KT P6SM SCT030 BKN040
     FM200100 30005KT P6SM SCT060
     FM201100 00000KT 2SM BR BKN007
     FM201400 VRB03KT P6SM SCT020=



000
FTUS43 KMKX 191744
TAFMKE
TAF
KMKE 191744Z 1918/2024 26010KT P6SM VCTS SCT030 BKN040CB
     FM192000 27011KT P6SM SCT035 BKN050
     FM200100 27006KT P6SM SCT080
     FM201000 28005KT 3SM BR BKN020
     FM201400 28007KT P6SM SCT020
     FM202000 20006KT P6SM SCT050
     FM202300 13005KT P6SM SCT200=



000
FTUS43 KMKX 191700 AAB
TAFMKE
TAF AMD
KMKE 191700Z 1917/2018 26010KT P6SM VCSH SCT025 BKN040
     FM191800 27011KT P6SM SCT030 BKN050
     FM200000 27008KT P6SM SCT040
     FM200900 28005KT 5SM BR SCT030
     FM201300 28005KT P6SM BKN040=



000
FTUS43 KMKX 191700 AAB
TAFMKE
TAF AMD
KMKE 191700Z 1917/2018 26010KT P6SM VCSH SCT025 BKN040
     FM191800 27011KT P6SM SCT030 BKN050
     FM200000 27008KT P6SM SCT040
     FM200900 28005KT 5SM BR SCT030
     FM201300 28005KT P6SM BKN040=



000
FTUS43 KMKX 191413 AAA
TAFMKE
TAF AMD
KMKE 191413Z 1914/2018 23010KT P6SM SCT015 BKN035
      TEMPO 1914/1916 BKN025
     FM191700 24012KT P6SM SCT040
     FM200000 27008KT P6SM SCT040
     FM200900 28005KT 5SM BR SCT030
     FM201300 28005KT P6SM BKN040=



000
FTUS43 KMKX 191413 AAA
TAFMKE
TAF AMD
KMKE 191413Z 1914/2018 23010KT P6SM SCT015 BKN035
      TEMPO 1914/1916 BKN025
     FM191700 24012KT P6SM SCT040
     FM200000 27008KT P6SM SCT040
     FM200900 28005KT 5SM BR SCT030
     FM201300 28005KT P6SM BKN040=



000
FTUS43 KMKX 191411 AAA
TAFMSN
TAF AMD
KMSN 191411Z 1914/2012 23004KT P6SM SCT013
      TEMPO 1914/1916 BKN015
     FM191600 26008KT P6SM SCT030
     FM191900 27010KT P6SM SCT040
     FM200000 30007KT P6SM SCT040
     FM200300 VRB03KT P6SM SCT150
     FM200700 00000KT 3SM BR SCT150
     FM201100 00000KT 1SM BR BKN005=



    US Dept of Commerce
    National Oceanic and Atmospheric Administration
    National Weather Service
    1325 East West Highway
    Silver Spring, MD 20910
    Page Author: NWS Internet Services Team
Disclaimer
Information Quality
Credits
Glossary
Privacy Policy
Freedom of Information Act (FOIA)
About Us
Career Opportunities